createdAt,value
2023-12-15T00:00:23.408Z,69.70
2023-12-15T00:02:50.238Z,69.80
2023-12-15T00:05:17.373Z,69.90
2023-12-15T00:07:44.200Z,69.80
2023-12-15T00:10:11.068Z,70.00
2023-12-15T00:12:37.805Z,70.10
2023-12-15T00:15:05.084Z,69.90
2023-12-15T00:17:32.087Z,70.20
2023-12-15T00:19:59.106Z,70.00
2023-12-15T00:22:26.021Z,70.40
2023-12-15T00:24:52.885Z,70.20
2023-12-15T00:27:19.650Z,70.20
2023-12-15T00:29:46.463Z,70.40
2023-12-15T00:32:13.270Z,70.40
2023-12-15T00:34:40.168Z,70.50
2023-12-15T00:37:06.928Z,70.70
2023-12-15T00:39:39.999Z,70.80
2023-12-15T00:42:07.037Z,71.90
2023-12-15T00:44:34.667Z,71.00
2023-12-15T00:47:01.800Z,70.70
2023-12-15T00:49:28.827Z,70.80
2023-12-15T00:51:56.195Z,70.80
2023-12-15T00:54:23.073Z,71.10
2023-12-15T00:56:50.353Z,70.90
2023-12-15T00:59:17.949Z,71.10
2023-12-15T01:01:44.884Z,71.40
2023-12-15T01:04:12.032Z,70.70
2023-12-15T01:06:39.023Z,70.80
2023-12-15T01:09:06.560Z,70.80
2023-12-15T01:11:33.523Z,71.40
2023-12-15T01:14:00.507Z,70.80
2023-12-15T01:16:27.304Z,70.90
2023-12-15T01:18:54.132Z,70.80
2023-12-15T01:21:20.971Z,70.80
2023-12-15T01:23:47.922Z,71.40
2023-12-15T01:26:14.739Z,71.00
2023-12-15T01:28:41.537Z,71.00
2023-12-15T01:31:08.343Z,71.00
2023-12-15T01:33:35.168Z,70.90
2023-12-15T01:36:01.986Z,71.50
2023-12-15T01:38:28.780Z,71.00
2023-12-15T01:40:55.657Z,71.00
2023-12-15T01:43:22.635Z,71.10
2023-12-15T01:45:55.505Z,71.20
2023-12-15T01:48:31.510Z,71.00
2023-12-15T01:50:58.406Z,72.50
2023-12-15T01:53:25.253Z,71.20
2023-12-15T01:55:52.097Z,71.10
2023-12-15T01:58:18.969Z,71.10
2023-12-15T02:00:49.186Z,71.40
2023-12-15T02:03:18.897Z,73.00
2023-12-15T02:05:45.862Z,71.30
2023-12-15T02:08:12.760Z,71.30
2023-12-15T02:10:39.907Z,71.50
2023-12-15T02:13:07.508Z,72.20
2023-12-15T02:15:34.915Z,72.10
2023-12-15T02:18:02.146Z,71.60
2023-12-15T02:20:29.028Z,71.40
2023-12-15T02:22:58.392Z,71.50
2023-12-15T02:25:25.558Z,71.60
2023-12-15T02:27:52.378Z,71.90
2023-12-15T02:30:19.219Z,72.20
2023-12-15T02:32:46.323Z,72.80
2023-12-15T02:35:15.396Z,72.70
2023-12-15T02:37:42.270Z,72.60
2023-12-15T02:40:09.597Z,72.40
2023-12-15T02:42:36.416Z,73.10
2023-12-15T02:45:03.426Z,72.50
2023-12-15T02:47:30.750Z,72.60
2023-12-15T02:49:57.684Z,72.40
2023-12-15T02:52:24.531Z,72.30
2023-12-15T02:54:51.332Z,72.50
2023-12-15T02:57:18.109Z,73.10
2023-12-15T02:59:44.879Z,72.80
2023-12-15T03:02:11.684Z,72.70
2023-12-15T03:04:38.471Z,72.60
2023-12-15T03:07:05.322Z,72.40
2023-12-15T03:09:32.101Z,72.60
2023-12-15T03:11:58.916Z,72.70
2023-12-15T03:14:25.799Z,72.80
2023-12-15T03:16:52.656Z,72.80
2023-12-15T03:19:19.568Z,72.90
2023-12-15T03:21:46.369Z,72.80
2023-12-15T03:24:13.196Z,72.30
2023-12-15T03:26:39.979Z,72.10
2023-12-15T03:29:06.817Z,72.20
2023-12-15T03:31:33.591Z,72.50
2023-12-15T03:34:00.430Z,72.70
2023-12-15T03:36:27.189Z,72.80
2023-12-15T03:38:54.004Z,72.80
2023-12-15T03:41:20.821Z,72.90
2023-12-15T03:43:47.572Z,72.90
2023-12-15T03:46:14.358Z,72.60
2023-12-15T03:48:41.185Z,72.40
2023-12-15T03:51:08.097Z,72.30
2023-12-15T03:53:34.932Z,72.20
2023-12-15T03:56:01.683Z,72.30
2023-12-15T03:58:28.538Z,72.50
2023-12-15T04:00:55.318Z,72.40
2023-12-15T04:03:23.313Z,72.70
2023-12-15T04:05:50.228Z,73.00
2023-12-15T04:08:17.253Z,73.00
2023-12-15T04:10:44.136Z,73.60
2023-12-15T04:13:10.967Z,73.40
2023-12-15T04:15:39.173Z,73.30
2023-12-15T04:18:06.424Z,73.50
2023-12-15T04:20:33.403Z,73.30
2023-12-15T04:23:00.263Z,73.20
2023-12-15T04:25:27.879Z,73.10
2023-12-15T04:27:54.691Z,73.20
2023-12-15T04:30:21.569Z,73.40
2023-12-15T04:32:48.443Z,73.40
2023-12-15T04:35:15.255Z,74.00
2023-12-15T04:37:47.799Z,73.40
2023-12-15T04:40:14.808Z,75.20
2023-12-15T04:42:42.311Z,73.50
2023-12-15T04:45:09.802Z,73.50
2023-12-15T04:47:37.393Z,73.70
2023-12-15T04:50:05.370Z,73.60
2023-12-15T04:52:32.229Z,73.90
2023-12-15T04:54:59.427Z,73.10
2023-12-15T04:57:26.186Z,72.90
2023-12-15T04:59:52.955Z,73.00
2023-12-15T05:02:20.000Z,73.00
2023-12-15T05:04:46.822Z,73.30
2023-12-15T05:07:13.593Z,72.90
2023-12-15T05:09:40.428Z,72.80
2023-12-15T05:12:09.533Z,72.90
2023-12-15T05:14:37.751Z,73.00
2023-12-15T05:17:05.003Z,73.90
2023-12-15T05:19:32.065Z,73.00
2023-12-15T05:21:59.159Z,73.00
2023-12-15T05:24:26.233Z,73.00
2023-12-15T05:26:53.055Z,72.90
2023-12-15T05:29:19.997Z,73.00
2023-12-15T05:31:46.884Z,73.20
2023-12-15T05:34:13.697Z,73.10
2023-12-15T05:36:41.477Z,73.20
2023-12-15T05:39:08.490Z,73.30
2023-12-15T05:41:35.509Z,73.40
2023-12-15T05:44:02.354Z,73.60
2023-12-15T05:46:29.160Z,73.20
2023-12-15T05:48:56.398Z,73.10
2023-12-15T05:51:23.391Z,73.30
2023-12-15T05:53:55.713Z,73.30
2023-12-15T05:56:25.270Z,73.20
2023-12-15T05:58:52.184Z,73.60
2023-12-15T06:01:19.124Z,73.40
2023-12-15T06:03:46.106Z,73.30
2023-12-15T06:06:13.488Z,73.30
2023-12-15T06:08:40.720Z,73.70
2023-12-15T06:11:07.587Z,74.00
2023-12-15T06:13:34.477Z,74.30
2023-12-15T06:16:01.316Z,73.80
2023-12-15T06:18:28.178Z,73.90
2023-12-15T06:20:55.087Z,73.90
2023-12-15T06:23:22.598Z,73.70
2023-12-15T06:25:49.511Z,74.00
2023-12-15T06:28:16.248Z,74.00
2023-12-15T06:30:43.114Z,73.90
2023-12-15T06:33:10.024Z,73.90
2023-12-15T06:35:36.875Z,74.00
2023-12-15T06:38:03.833Z,74.00
2023-12-15T06:40:30.723Z,73.80
2023-12-15T06:42:57.597Z,73.70
2023-12-15T06:45:24.364Z,73.90
2023-12-15T06:47:51.260Z,73.30
2023-12-15T06:50:18.164Z,73.60
2023-12-15T06:52:45.975Z,73.60
2023-12-15T06:55:12.808Z,73.80
2023-12-15T06:57:39.732Z,73.70
2023-12-15T07:00:08.120Z,73.80
2023-12-15T07:02:36.089Z,73.30
2023-12-15T07:05:03.184Z,74.30
2023-12-15T07:07:30.094Z,74.00
2023-12-15T07:09:57.026Z,73.80
2023-12-15T07:12:23.804Z,73.70
2023-12-15T07:14:50.589Z,73.60
2023-12-15T07:17:17.421Z,73.90
2023-12-15T07:19:44.290Z,73.60
2023-12-15T07:22:11.042Z,73.80
2023-12-15T07:24:37.890Z,73.70
2023-12-15T07:27:05.622Z,73.80
2023-12-15T07:29:32.430Z,73.70
2023-12-15T07:31:59.333Z,73.90
2023-12-15T07:34:26.234Z,74.00
2023-12-15T07:36:53.056Z,74.00
2023-12-15T07:39:23.001Z,74.20
2023-12-15T07:41:50.223Z,73.40
2023-12-15T07:44:17.599Z,74.20
2023-12-15T07:46:45.102Z,74.20
2023-12-15T07:49:11.984Z,74.40
2023-12-15T07:51:38.890Z,74.10
2023-12-15T07:54:05.857Z,74.10
2023-12-15T07:56:32.887Z,74.50
2023-12-15T07:58:59.691Z,74.30
2023-12-15T08:01:26.619Z,74.10
2023-12-15T08:03:53.500Z,73.90
2023-12-15T08:06:21.145Z,73.70
2023-12-15T08:08:48.874Z,74.30
2023-12-15T08:11:16.255Z,74.70
2023-12-15T08:13:43.689Z,74.30
2023-12-15T08:16:14.219Z,74.30
2023-12-15T08:18:43.124Z,74.80
2023-12-15T08:21:11.565Z,74.40
2023-12-15T08:23:38.555Z,75.00
2023-12-15T08:26:05.677Z,74.10
2023-12-15T08:28:32.585Z,74.00
2023-12-15T08:31:00.144Z,73.90
2023-12-15T08:33:28.892Z,73.90
2023-12-15T08:35:55.895Z,74.00
2023-12-15T08:38:22.833Z,74.20
2023-12-15T08:40:49.701Z,74.10
2023-12-15T08:43:16.475Z,74.10
2023-12-15T08:45:43.285Z,74.00
2023-12-15T08:48:10.239Z,73.70
2023-12-15T08:50:37.229Z,73.80
2023-12-15T08:53:04.138Z,73.70
2023-12-15T08:55:31.008Z,73.70
2023-12-15T08:57:57.960Z,73.50
2023-12-15T09:00:24.885Z,73.50
2023-12-15T09:02:54.155Z,73.50
2023-12-15T09:05:38.986Z,73.50
2023-12-15T09:08:12.523Z,73.70
2023-12-15T09:10:44.890Z,73.10
2023-12-15T09:13:13.036Z,73.20
2023-12-15T09:15:40.036Z,73.50
2023-12-15T09:18:10.316Z,73.10
2023-12-15T09:20:38.346Z,73.00
2023-12-15T09:23:10.342Z,72.90
2023-12-15T09:25:37.543Z,74.80
2023-12-15T09:28:06.250Z,73.30
2023-12-15T09:30:33.952Z,72.90
2023-12-15T09:33:01.349Z,73.20
2023-12-15T09:35:28.418Z,72.80
2023-12-15T09:37:55.265Z,72.50
2023-12-15T09:40:24.603Z,72.50
2023-12-15T09:42:51.674Z,73.10
2023-12-15T09:45:19.416Z,72.70
2023-12-15T09:47:48.288Z,72.70
2023-12-15T09:50:18.564Z,72.90
2023-12-15T09:52:47.129Z,73.10
2023-12-15T09:55:13.930Z,73.10
2023-12-15T09:57:41.843Z,71.70
2023-12-15T10:00:09.128Z,71.70
2023-12-15T10:02:42.265Z,71.80
2023-12-15T10:05:09.560Z,71.40
2023-12-15T10:07:36.477Z,71.60
2023-12-15T10:10:03.535Z,71.30
2023-12-15T10:12:31.966Z,71.30
2023-12-15T10:14:58.778Z,71.80
2023-12-15T10:17:26.099Z,70.80
2023-12-15T10:20:11.654Z,70.80
2023-12-15T10:22:41.488Z,72.40
2023-12-15T10:25:21.020Z,70.70
2023-12-15T10:27:51.826Z,72.60
2023-12-15T10:30:19.643Z,70.60
2023-12-15T10:32:47.264Z,70.80
2023-12-15T10:35:14.616Z,70.30
2023-12-15T10:37:43.251Z,70.50
2023-12-15T10:40:10.708Z,70.30
2023-12-15T10:42:38.929Z,70.20
2023-12-15T10:45:07.174Z,70.10
2023-12-15T10:47:34.589Z,71.10
2023-12-15T10:50:02.963Z,70.10
2023-12-15T10:52:33.520Z,70.30
2023-12-15T10:55:04.420Z,69.70
2023-12-15T10:57:34.115Z,70.40
2023-12-15T11:00:06.126Z,68.80
2023-12-15T11:02:35.763Z,70.60
2023-12-15T11:05:03.658Z,70.20
2023-12-15T11:07:31.633Z,69.50
2023-12-15T11:10:03.488Z,69.10
2023-12-15T11:12:38.560Z,68.80
2023-12-15T11:15:08.652Z,70.20
2023-12-15T11:17:44.348Z,69.90
2023-12-15T11:20:24.167Z,70.10
2023-12-15T11:23:08.980Z,70.00
2023-12-15T11:25:53.172Z,70.30
2023-12-15T11:28:21.768Z,69.00
2023-12-15T11:30:54.099Z,68.10
2023-12-15T11:33:35.805Z,69.20
2023-12-15T11:36:07.989Z,69.80
2023-12-15T11:38:36.778Z,68.40
2023-12-15T11:41:04.376Z,68.20
2023-12-15T11:43:32.681Z,67.50
2023-12-15T11:45:59.986Z,68.00
2023-12-15T11:48:27.489Z,67.20
2023-12-15T11:50:54.391Z,66.70
2023-12-15T11:53:21.395Z,66.40
2023-12-15T11:55:51.580Z,66.20
2023-12-15T11:58:23.084Z,66.20
2023-12-15T12:00:50.053Z,65.90
2023-12-15T12:03:17.326Z,65.90
2023-12-15T12:05:55.954Z,65.50
2023-12-15T12:08:24.194Z,66.80
2023-12-15T12:11:01.019Z,65.30
2023-12-15T12:13:37.033Z,66.20
2023-12-15T12:16:05.010Z,67.00
2023-12-15T12:18:32.823Z,65.50
2023-12-15T12:21:03.981Z,66.00
2023-12-15T12:23:41.647Z,67.30
2023-12-15T12:26:13.197Z,66.40
2023-12-15T12:28:41.632Z,65.00
2023-12-15T12:31:08.670Z,66.00
2023-12-15T12:33:35.626Z,64.70
2023-12-15T12:36:02.668Z,64.00
2023-12-15T12:38:29.585Z,63.70
2023-12-15T12:40:56.456Z,63.60
2023-12-15T12:43:23.825Z,63.30
2023-12-15T12:45:50.755Z,63.10
2023-12-15T12:48:17.700Z,62.80
2023-12-15T12:50:44.716Z,63.10
2023-12-15T12:53:12.581Z,62.60
2023-12-15T12:55:39.451Z,62.90
2023-12-15T12:58:06.962Z,62.50
2023-12-15T13:00:33.826Z,62.50
2023-12-15T13:03:00.783Z,62.20
2023-12-15T13:05:27.602Z,62.10
2023-12-15T13:07:54.360Z,62.10
2023-12-15T13:10:22.467Z,62.00
2023-12-15T13:12:56.259Z,61.90
2023-12-15T13:15:23.680Z,61.80
2023-12-15T13:17:51.558Z,62.20
2023-12-15T13:20:19.524Z,62.00
2023-12-15T13:22:48.815Z,62.00
2023-12-15T13:25:16.706Z,62.00
2023-12-15T13:27:43.659Z,61.70
2023-12-15T13:30:11.652Z,61.50
2023-12-15T13:32:40.120Z,61.70
2023-12-15T13:35:08.331Z,61.30
2023-12-15T13:37:35.634Z,61.70
2023-12-15T13:40:04.964Z,61.70
2023-12-15T13:42:32.170Z,61.80
2023-12-15T13:44:59.039Z,61.70
2023-12-15T13:47:26.793Z,61.40
2023-12-15T13:49:53.782Z,61.50
2023-12-15T13:52:20.723Z,61.70
2023-12-15T13:54:47.775Z,61.80
2023-12-15T13:57:14.820Z,61.80
2023-12-15T13:59:41.630Z,62.60
2023-12-15T14:02:08.602Z,62.00
2023-12-15T14:04:35.502Z,62.10
2023-12-15T14:07:02.404Z,62.10
2023-12-15T14:09:29.610Z,62.30
2023-12-15T14:11:57.176Z,62.60
2023-12-15T14:14:24.525Z,63.00
2023-12-15T14:16:51.421Z,63.20
2023-12-15T14:19:19.611Z,63.10
2023-12-15T14:21:47.600Z,63.10
2023-12-15T14:24:19.314Z,64.10
2023-12-15T14:26:47.023Z,63.10
2023-12-15T14:29:14.311Z,63.50
2023-12-15T14:31:41.202Z,63.30
2023-12-15T14:34:09.224Z,63.20
2023-12-15T14:36:36.835Z,63.30
2023-12-15T14:39:07.039Z,63.50
2023-12-15T14:41:36.141Z,63.50
2023-12-15T14:44:04.972Z,64.50
2023-12-15T14:46:32.209Z,63.90
2023-12-15T14:48:59.362Z,63.60
2023-12-15T14:51:26.699Z,63.60
2023-12-15T14:53:54.301Z,63.50
2023-12-15T14:56:24.639Z,63.70
2023-12-15T14:58:51.481Z,63.70
2023-12-15T15:01:21.536Z,63.80
2023-12-15T15:03:50.328Z,63.80
2023-12-15T15:06:26.616Z,63.70
2023-12-15T15:08:59.666Z,64.70
2023-12-15T15:11:27.115Z,63.80
2023-12-15T15:13:54.132Z,63.60
2023-12-15T15:16:21.165Z,63.40
2023-12-15T15:18:48.141Z,63.40
2023-12-15T15:21:15.159Z,63.40
2023-12-15T15:23:42.122Z,63.30
2023-12-15T15:26:11.880Z,63.50
2023-12-15T15:28:38.964Z,65.30
2023-12-15T15:31:06.175Z,63.20
2023-12-15T15:33:33.428Z,63.30
2023-12-15T15:36:01.241Z,63.20
2023-12-15T15:38:28.167Z,64.10
2023-12-15T15:40:55.017Z,63.10
2023-12-15T15:43:22.546Z,63.10
2023-12-15T15:45:50.499Z,63.10
2023-12-15T15:48:17.357Z,63.00
2023-12-15T15:50:46.132Z,62.90
2023-12-15T15:53:13.180Z,62.90
2023-12-15T15:55:39.932Z,63.30
2023-12-15T15:58:06.814Z,63.30
2023-12-15T16:00:34.117Z,63.00
2023-12-15T16:03:02.250Z,63.30
2023-12-15T16:05:29.123Z,63.10
2023-12-15T16:07:55.911Z,62.80
2023-12-15T16:10:22.729Z,62.80
2023-12-15T16:12:49.585Z,62.80
2023-12-15T16:15:17.676Z,63.00
2023-12-15T16:17:44.497Z,63.10
2023-12-15T16:20:11.706Z,63.50
2023-12-15T16:22:40.524Z,63.20
2023-12-15T16:25:09.129Z,63.20
2023-12-15T16:27:37.059Z,64.00
2023-12-15T16:30:05.541Z,63.70
2023-12-15T16:32:32.810Z,63.40
2023-12-15T16:34:59.696Z,63.20
2023-12-15T16:37:26.471Z,63.10
2023-12-15T16:39:55.447Z,63.10
2023-12-15T16:42:22.210Z,63.10
2023-12-15T16:44:51.065Z,63.50
2023-12-15T16:47:18.694Z,64.10
2023-12-15T16:49:45.882Z,63.40
2023-12-15T16:52:13.469Z,62.90
2023-12-15T16:54:40.445Z,63.00
2023-12-15T16:57:07.311Z,62.80
2023-12-15T16:59:41.686Z,62.90
2023-12-15T17:02:09.561Z,63.90
2023-12-15T17:04:37.104Z,61.90
2023-12-15T17:07:04.128Z,61.90
2023-12-15T17:09:32.090Z,62.10
2023-12-15T17:12:00.379Z,61.90
2023-12-15T17:14:27.699Z,61.90
2023-12-15T17:16:54.649Z,61.60
2023-12-15T17:19:21.674Z,61.60
2023-12-15T17:21:48.556Z,61.40
2023-12-15T17:24:15.909Z,61.20
2023-12-15T17:26:42.616Z,61.40
2023-12-15T17:29:09.362Z,61.60
2023-12-15T17:31:36.170Z,61.80
2023-12-15T17:34:04.340Z,61.80
2023-12-15T17:36:31.096Z,61.80
2023-12-15T17:38:57.883Z,61.70
2023-12-15T17:41:24.715Z,61.70
2023-12-15T17:43:51.556Z,61.90
2023-12-15T17:46:27.158Z,62.00
2023-12-15T17:48:54.122Z,63.50
2023-12-15T17:51:21.240Z,62.20
2023-12-15T17:53:48.093Z,62.20
2023-12-15T17:56:14.907Z,61.90
2023-12-15T17:58:42.645Z,61.70
2023-12-15T18:01:10.900Z,61.80
2023-12-15T18:03:37.832Z,62.10
2023-12-15T18:06:04.880Z,61.60
2023-12-15T18:08:31.722Z,61.80
2023-12-15T18:10:58.533Z,61.60
2023-12-15T18:13:25.716Z,61.60
2023-12-15T18:15:52.726Z,61.90
2023-12-15T18:18:19.927Z,61.60
2023-12-15T18:20:47.401Z,61.90
2023-12-15T18:23:15.056Z,61.90
2023-12-15T18:25:42.622Z,61.90
2023-12-15T18:28:15.952Z,62.40
2023-12-15T18:30:49.790Z,61.70
2023-12-15T18:33:16.727Z,61.80
2023-12-15T18:35:43.708Z,61.80
2023-12-15T18:38:11.087Z,61.50
2023-12-15T18:40:37.924Z,61.60
2023-12-15T18:43:05.085Z,61.80
2023-12-15T18:45:31.848Z,61.70
2023-12-15T18:47:58.753Z,61.50
2023-12-15T18:50:25.678Z,61.50
2023-12-15T18:52:52.485Z,62.10
2023-12-15T18:55:19.484Z,61.50
2023-12-15T18:57:51.988Z,61.50
2023-12-15T19:00:22.414Z,61.60
2023-12-15T19:02:51.323Z,61.80
2023-12-15T19:05:18.551Z,62.40
2023-12-15T19:07:46.982Z,61.60
2023-12-15T19:10:14.847Z,61.80
2023-12-15T19:12:46.090Z,61.60
2023-12-15T19:15:13.879Z,61.30
2023-12-15T19:17:40.945Z,60.70
2023-12-15T19:20:09.014Z,60.70
2023-12-15T19:22:36.167Z,61.10
2023-12-15T19:25:03.315Z,60.90
2023-12-15T19:27:30.292Z,60.90
2023-12-15T19:29:57.082Z,60.70
2023-12-15T19:32:24.254Z,61.20
2023-12-15T19:34:51.983Z,61.00
2023-12-15T19:37:19.239Z,60.70
2023-12-15T19:39:46.252Z,60.50
2023-12-15T19:42:13.008Z,60.80
2023-12-15T19:44:42.590Z,60.70
2023-12-15T19:47:09.777Z,62.40
2023-12-15T19:49:36.692Z,60.00
2023-12-15T19:52:04.486Z,60.80
2023-12-15T19:54:31.827Z,60.80
2023-12-15T19:56:58.619Z,60.90
2023-12-15T19:59:26.886Z,61.20
2023-12-15T20:01:57.255Z,61.00
2023-12-15T20:04:24.597Z,61.90
2023-12-15T20:06:51.646Z,60.70
2023-12-15T20:09:19.359Z,60.90
2023-12-15T20:11:46.271Z,61.00
2023-12-15T20:14:13.996Z,61.00
2023-12-15T20:16:41.759Z,61.20
2023-12-15T20:19:10.512Z,61.20
2023-12-15T20:21:37.761Z,61.10
2023-12-15T20:24:04.953Z,61.00
2023-12-15T20:26:31.675Z,61.40
2023-12-15T20:29:01.225Z,60.80
2023-12-15T20:31:28.507Z,60.60
2023-12-15T20:33:59.464Z,61.20
2023-12-15T20:36:26.292Z,60.90
2023-12-15T20:38:53.754Z,61.00
2023-12-15T20:41:21.454Z,62.00
2023-12-15T20:43:49.086Z,61.50
2023-12-15T20:46:16.963Z,61.40
2023-12-15T20:48:44.449Z,61.20
2023-12-15T20:51:20.871Z,60.90
2023-12-15T20:53:47.725Z,62.20
2023-12-15T20:56:27.736Z,60.40
2023-12-15T20:58:55.046Z,61.70
2023-12-15T21:01:22.256Z,60.50
2023-12-15T21:03:52.819Z,60.50
2023-12-15T21:06:20.442Z,59.70
2023-12-15T21:08:52.954Z,60.10
2023-12-15T21:11:20.063Z,60.40
2023-12-15T21:13:47.103Z,60.10
2023-12-15T21:16:24.438Z,60.00
2023-12-15T21:18:51.445Z,61.90
2023-12-15T21:21:27.096Z,60.00
2023-12-15T21:23:53.906Z,61.80
2023-12-15T21:26:20.768Z,59.90
2023-12-15T21:28:47.530Z,60.00
2023-12-15T21:31:14.438Z,60.10
2023-12-15T21:33:41.488Z,60.10
2023-12-15T21:36:11.182Z,60.00
2023-12-15T21:38:39.034Z,59.80
2023-12-15T21:41:06.080Z,61.00
2023-12-15T21:43:32.947Z,60.40
2023-12-15T21:46:00.019Z,60.40
2023-12-15T21:48:27.020Z,60.20
2023-12-15T21:50:53.968Z,59.90
2023-12-15T21:53:20.777Z,60.20
2023-12-15T21:55:47.649Z,60.10
2023-12-15T21:58:14.482Z,60.30
2023-12-15T22:00:41.487Z,60.60
2023-12-15T22:03:09.257Z,60.90
2023-12-15T22:05:36.271Z,60.70
2023-12-15T22:08:03.108Z,61.00
2023-12-15T22:10:32.750Z,61.20
2023-12-15T22:12:59.524Z,60.90
2023-12-15T22:15:26.910Z,61.00
2023-12-15T22:17:56.890Z,61.00
2023-12-15T22:20:23.764Z,61.10
2023-12-15T22:22:50.540Z,61.10
2023-12-15T22:25:17.366Z,61.10
2023-12-15T22:27:44.183Z,61.20
2023-12-15T22:30:13.322Z,61.30
2023-12-15T22:32:40.407Z,62.70
2023-12-15T22:35:08.492Z,61.90
2023-12-15T22:37:36.427Z,61.60
2023-12-15T22:40:05.322Z,61.30
2023-12-15T22:42:32.506Z,61.30
2023-12-15T22:44:59.338Z,61.30
2023-12-15T22:47:26.175Z,61.30
2023-12-15T22:49:53.790Z,61.50
2023-12-15T22:52:20.831Z,62.10
2023-12-15T22:54:49.007Z,61.00
2023-12-15T22:57:16.017Z,61.60
2023-12-15T22:59:43.203Z,61.00
2023-12-15T23:02:10.261Z,61.30
2023-12-15T23:04:37.258Z,61.30
2023-12-15T23:07:05.570Z,60.90
2023-12-15T23:09:32.930Z,61.10
2023-12-15T23:11:59.895Z,60.90
2023-12-15T23:14:27.750Z,61.30
2023-12-15T23:16:54.650Z,62.00
2023-12-15T23:19:21.690Z,61.00
2023-12-15T23:21:48.708Z,60.80
2023-12-15T23:24:15.924Z,61.00
2023-12-15T23:26:42.723Z,60.60
2023-12-15T23:29:10.542Z,60.60
2023-12-15T23:31:37.594Z,61.00
2023-12-15T23:34:04.588Z,60.60
2023-12-15T23:36:31.688Z,60.70
2023-12-15T23:38:58.990Z,60.70
2023-12-15T23:41:25.905Z,60.80
2023-12-15T23:43:53.155Z,61.00
2023-12-15T23:46:20.003Z,60.70
2023-12-15T23:48:46.931Z,60.70
2023-12-15T23:51:14.583Z,61.00
2023-12-15T23:53:42.259Z,60.50
2023-12-15T23:56:09.321Z,60.50
2023-12-15T23:58:36.082Z,60.50
